Edisongracht — PDUJ — position and weather

sailwx.info

Track history (hours):
 
Tides and Currents Weather Stations Pressure Air Temp Water Temp Dewpoint Dewpoint Depression Visibility Wind Speed Wind Dir Waves Ship Positions

Edisongracht

Last reported at 2015-Mar-02 03:33 UTC. Time now 2015-Mar-03 16:35 UTC.
Position N 36°01' W 005°13'.

Length 136 m; beam 19 m; draft 9 m.

Type: Cargo ship. MMSI: 244262000.

Date/timePositionNaut miles runAvg speedWind from/ knotsBaromVisibWave heightAir tempDewpointWater temp
2015-Mar-02 03:33N 36°01' W 005°13'24412.7
2015-Mar-01 08:17N 37°44' W 009°50'2414.0
2015-Mar-01 06:33N 38°08' W 009°57'1514.6
2015-Mar-01 05:31N 38°23' W 010°01'1414.5
2015-Mar-01 04:32N 38°37' W 010°05'  
2015-Feb-26 07:33N 50°27' W 000°29'1714.1
2015-Feb-26 06:20N 50°31' W 000°03'1213.6
2015-Feb-26 05:25N 50°35' E 000°16'1113.0
2015-Feb-26 04:33N 50°38' E 000°33'1212.5
2015-Feb-26 03:33N 50°45' E 000°49'1612.9
2015-Feb-26 02:19N 50°55' E 001°10'1013.4
2015-Feb-26 01:33N 51°02' E 001°22'1514.6
2015-Feb-26 00:33N 51°11' E 001°40'1515.4
2015-Feb-25 23:33N 51°23' E 001°55'1413.6
2015-Feb-25 22:34N 51°35' E 002°06'1513.0
2015-Feb-25 21:26N 51°46' E 002°21'9613.1
2015-Feb-25 14:08N 52°60' E 004°02'3812.8
2015-Feb-25 11:12N 53°30' E 004°40'911.5
2015-Feb-25 10:25N 53°33' E 004°54'1011.2
2015-Feb-25 09:33N 53°37' E 005°09'1211.6
2015-Feb-25 08:33N 53°40' E 005°27'1212.4
2015-Feb-25 07:33N 53°44' E 005°47'1512.7
2015-Feb-25 06:25N 53°49' E 006°10'4012.1
2015-Feb-25 03:09N 53°58' E 007°15'711.0
2015-Feb-25 02:29N 53°60' E 007°27'1010.4
2015-Feb-25 01:33N 54°01' E 007°44'1110.5
2015-Feb-25 00:33N 54°01' E 008°02'10 9.6
2015-Feb-24 23:33N 53°60' E 008°18'1413.6
2015-Feb-24 22:33N 53°56' E 008°40'1414.0
2015-Feb-24 21:33N 53°52' E 009°03'4 4.4
2015-Feb-24 20:33N 53°54' E 009°09'8 7.8
2015-Feb-24 19:33N 54°00' E 009°18'3 2.7
2015-Feb-24 18:33N 54°03' E 009°18'7 6.7
2015-Feb-24 17:33N 54°09' E 009°22'7 7.0
2015-Feb-24 16:33N 54°12' E 009°33'6 5.6
2015-Feb-24 15:26N 54°17' E 009°39'6 6.3
2015-Feb-24 14:33N 54°21' E 009°46'7 6.9
2015-Feb-24 13:33N 54°21' E 009°58'6 6.4
2015-Feb-24 12:33N 54°22' E 010°08'1 1.1
2015-Feb-24 11:33N 54°22' E 010°10'4 4.0
2015-Feb-24 10:33N 54°26' E 010°13'1111.2
2015-Feb-24 09:33N 54°33' E 010°28'1612.6
2015-Feb-24 08:15N 54°36' E 010°56'1013.6
2015-Feb-24 07:33N 54°35' E 011°12'1414.0
2015-Feb-24 06:33N 54°29' E 011°34'1313.0
2015-Feb-24 05:33N 54°27' E 011°56'1111.4
2015-Feb-24 04:33N 54°32' E 012°13'1212.5
2015-Feb-24 03:33N 54°42' E 012°27'4013.0
2015-Feb-24 00:31N 54°58' E 013°30'1413.1
2015-Feb-23 23:29N 55°02' E 013°52'1212.5
2015-Feb-23 22:33N 55°09' E 014°09'1312.9
2015-Feb-23 21:33N 55°19' E 014°23'1312.7
2015-Feb-23 20:33N 55°29' E 014°37'1312.5
2015-Feb-23 19:33N 55°35' E 014°57'1212.0
2015-Feb-23 18:33N 55°40' E 015°15'34611.4
2015-Feb-22 12:08N 59°37' E 023°07'611.0
2015-Feb-22 11:33N 59°39' E 023°20'1110.6
2015-Feb-22 10:33N 59°42' E 023°40'1110.5
2015-Feb-22 09:32N 59°44' E 024°00'1611.1
2015-Feb-22 08:05N 59°48' E 024°31'4512.1
2015-Feb-22 04:19N 59°59' E 025°59'1012.6
2015-Feb-22 03:33N 60°05' E 026°14'1212.2
2015-Feb-22 02:33N 60°16' E 026°27'1211.9
2015-Feb-22 01:33N 60°23' E 026°46'1111.1
2015-Feb-22 00:33N 60°23' E 027°09'8 8.4
2015-Feb-21 23:33N 60°31' E 027°10'1 0.6
2015-Feb-21 22:33N 60°32' E 027°10'0 0.0
2015-Feb-21 21:33N 60°32' E 027°10'0 0.0
2015-Feb-21 20:27N 60°32' E 027°10'0 0.0
2015-Feb-21 19:15N 60°32' E 027°10'0 0.0
2015-Feb-21 18:33N 60°32' E 027°10'0 0.0
2015-Feb-21 17:27N 60°32' E 027°10'0 0.0
2015-Feb-21 16:21N 60°32' E 027°10'0 0.0
2015-Feb-21 15:33N 60°32' E 027°10'0 0.0
2015-Feb-21 14:15N 60°32' E 027°10'0 0.0
2015-Feb-21 13:33N 60°32' E 027°10'0 0.0
2015-Feb-21 12:33N 60°32' E 027°10'0 0.0
2015-Feb-21 11:18N 60°32' E 027°10'0 0.0
2015-Feb-21 10:33N 60°32' E 027°10'0 0.0
2015-Feb-21 09:24N 60°32' E 027°10'0 0.0
2015-Feb-21 08:33N 60°32' E 027°10'0 0.0
2015-Feb-21 07:27N 60°32' E 027°10'0 0.0
2015-Feb-21 06:27N 60°32' E 027°10'0 0.0
2015-Feb-21 05:27N 60°32' E 027°10'0 0.0
2015-Feb-21 03:30N 60°32' E 027°10'0 0.0
2015-Feb-21 02:15N 60°32' E 027°10'0 0.0
2015-Feb-21 01:33N 60°32' E 027°10'0 0.1
2015-Feb-21 00:30N 60°32' E 027°10'0 0.0
2015-Feb-20 22:26N 60°32' E 027°10'0 0.0
2015-Feb-20 21:20N 60°32' E 027°10'0 0.0
2015-Feb-20 20:32N 60°32' E 027°10'0 0.0
2015-Feb-20 19:29N 60°32' E 027°10'0 0.0
2015-Feb-20 18:32N 60°32' E 027°10'0 0.0
2015-Feb-20 17:32N 60°32' E 027°10'0 0.0
2015-Feb-20 16:32N 60°32' E 027°10'0 0.0
2015-Feb-20 15:32N 60°32' E 027°10'0 0.0
2015-Feb-20 14:29N 60°32' E 027°10'0 0.0
2015-Feb-20 13:32N 60°32' E 027°10'0 0.0
2015-Feb-20 12:32N 60°32' E 027°10'0 0.0
2015-Feb-20 11:26N 60°32' E 027°10'0 0.0
2015-Feb-20 10:32N 60°32' E 027°10'0 0.0
2015-Feb-20 09:32N 60°32' E 027°10'0 0.0
2015-Feb-20 08:29N 60°32' E 027°10'0 0.0
2015-Feb-20 07:32N 60°32' E 027°10'0 0.0
2015-Feb-20 06:32N 60°32' E 027°10'0 0.0
2015-Feb-20 05:32N 60°32' E 027°10'0 0.0
2015-Feb-20 04:32N 60°32' E 027°10'  
Track history (hours):
 
Tides and Currents Weather Stations Pressure Air Temp Water Temp Dewpoint Dewpoint Depression Visibility Wind Speed Wind Dir Waves Ship Positions

Edisongracht

Last reported at 2015-Mar-02 03:33 UTC. Time now 2015-Mar-03 16:35 UTC.
Position N 36°01' W 005°13'.

Length 136 m; beam 19 m; draft 9 m.

Type: Cargo ship. MMSI: 244262000.

Date/timePositionNaut miles runAvg speedWind from/ knotsBaromVisibWave heightAir tempDewpointWater temp
2015-Mar-02 03:33N 36°01' W 005°13'24412.7
2015-Mar-01 08:17N 37°44' W 009°50'2414.0
2015-Mar-01 06:33N 38°08' W 009°57'1514.6
2015-Mar-01 05:31N 38°23' W 010°01'1414.5
2015-Mar-01 04:32N 38°37' W 010°05'  
2015-Feb-26 07:33N 50°27' W 000°29'1714.1
2015-Feb-26 06:20N 50°31' W 000°03'1213.6
2015-Feb-26 05:25N 50°35' E 000°16'1113.0
2015-Feb-26 04:33N 50°38' E 000°33'1212.5
2015-Feb-26 03:33N 50°45' E 000°49'1612.9
2015-Feb-26 02:19N 50°55' E 001°10'1013.4
2015-Feb-26 01:33N 51°02' E 001°22'1514.6
2015-Feb-26 00:33N 51°11' E 001°40'1515.4
2015-Feb-25 23:33N 51°23' E 001°55'1413.6
2015-Feb-25 22:34N 51°35' E 002°06'1513.0
2015-Feb-25 21:26N 51°46' E 002°21'9613.1
2015-Feb-25 14:08N 52°60' E 004°02'3812.8
2015-Feb-25 11:12N 53°30' E 004°40'911.5
2015-Feb-25 10:25N 53°33' E 004°54'1011.2
2015-Feb-25 09:33N 53°37' E 005°09'1211.6
2015-Feb-25 08:33N 53°40' E 005°27'1212.4
2015-Feb-25 07:33N 53°44' E 005°47'1512.7
2015-Feb-25 06:25N 53°49' E 006°10'4012.1
2015-Feb-25 03:09N 53°58' E 007°15'711.0
2015-Feb-25 02:29N 53°60' E 007°27'1010.4
2015-Feb-25 01:33N 54°01' E 007°44'1110.5
2015-Feb-25 00:33N 54°01' E 008°02'10 9.6
2015-Feb-24 23:33N 53°60' E 008°18'1413.6
2015-Feb-24 22:33N 53°56' E 008°40'1414.0
2015-Feb-24 21:33N 53°52' E 009°03'4 4.4
2015-Feb-24 20:33N 53°54' E 009°09'8 7.8
2015-Feb-24 19:33N 54°00' E 009°18'3 2.7
2015-Feb-24 18:33N 54°03' E 009°18'7 6.7
2015-Feb-24 17:33N 54°09' E 009°22'7 7.0
2015-Feb-24 16:33N 54°12' E 009°33'6 5.6
2015-Feb-24 15:26N 54°17' E 009°39'6 6.3
2015-Feb-24 14:33N 54°21' E 009°46'7 6.9
2015-Feb-24 13:33N 54°21' E 009°58'6 6.4
2015-Feb-24 12:33N 54°22' E 010°08'1 1.1
2015-Feb-24 11:33N 54°22' E 010°10'4 4.0
2015-Feb-24 10:33N 54°26' E 010°13'1111.2
2015-Feb-24 09:33N 54°33' E 010°28'1612.6
2015-Feb-24 08:15N 54°36' E 010°56'1013.6
2015-Feb-24 07:33N 54°35' E 011°12'1414.0
2015-Feb-24 06:33N 54°29' E 011°34'1313.0
2015-Feb-24 05:33N 54°27' E 011°56'1111.4
2015-Feb-24 04:33N 54°32' E 012°13'1212.5
2015-Feb-24 03:33N 54°42' E 012°27'4013.0
2015-Feb-24 00:31N 54°58' E 013°30'1413.1
2015-Feb-23 23:29N 55°02' E 013°52'1212.5
2015-Feb-23 22:33N 55°09' E 014°09'1312.9
2015-Feb-23 21:33N 55°19' E 014°23'1312.7
2015-Feb-23 20:33N 55°29' E 014°37'1312.5
2015-Feb-23 19:33N 55°35' E 014°57'1212.0
2015-Feb-23 18:33N 55°40' E 015°15'34611.4
2015-Feb-22 12:08N 59°37' E 023°07'611.0
2015-Feb-22 11:33N 59°39' E 023°20'1110.6
2015-Feb-22 10:33N 59°42' E 023°40'1110.5
2015-Feb-22 09:32N 59°44' E 024°00'1611.1
2015-Feb-22 08:05N 59°48' E 024°31'4512.1
2015-Feb-22 04:19N 59°59' E 025°59'1012.6
2015-Feb-22 03:33N 60°05' E 026°14'1212.2
2015-Feb-22 02:33N 60°16' E 026°27'1211.9
2015-Feb-22 01:33N 60°23' E 026°46'1111.1
2015-Feb-22 00:33N 60°23' E 027°09'8 8.4
2015-Feb-21 23:33N 60°31' E 027°10'1 0.6
2015-Feb-21 22:33N 60°32' E 027°10'0 0.0
2015-Feb-21 21:33N 60°32' E 027°10'0 0.0
2015-Feb-21 20:27N 60°32' E 027°10'0 0.0
2015-Feb-21 19:15N 60°32' E 027°10'0 0.0
2015-Feb-21 18:33N 60°32' E 027°10'0 0.0
2015-Feb-21 17:27N 60°32' E 027°10'0 0.0
2015-Feb-21 16:21N 60°32' E 027°10'0 0.0
2015-Feb-21 15:33N 60°32' E 027°10'0 0.0
2015-Feb-21 14:15N 60°32' E 027°10'0 0.0
2015-Feb-21 13:33N 60°32' E 027°10'0 0.0
2015-Feb-21 12:33N 60°32' E 027°10'0 0.0
2015-Feb-21 11:18N 60°32' E 027°10'0 0.0
2015-Feb-21 10:33N 60°32' E 027°10'0 0.0
2015-Feb-21 09:24N 60°32' E 027°10'0 0.0
2015-Feb-21 08:33N 60°32' E 027°10'0 0.0
2015-Feb-21 07:27N 60°32' E 027°10'0 0.0
2015-Feb-21 06:27N 60°32' E 027°10'0 0.0
2015-Feb-21 05:27N 60°32' E 027°10'0 0.0
2015-Feb-21 03:30N 60°32' E 027°10'0 0.0
2015-Feb-21 02:15N 60°32' E 027°10'0 0.0
2015-Feb-21 01:33N 60°32' E 027°10'0 0.1
2015-Feb-21 00:30N 60°32' E 027°10'0 0.0
2015-Feb-20 22:26N 60°32' E 027°10'0 0.0
2015-Feb-20 21:20N 60°32' E 027°10'0 0.0
2015-Feb-20 20:32N 60°32' E 027°10'0 0.0
2015-Feb-20 19:29N 60°32' E 027°10'0 0.0
2015-Feb-20 18:32N 60°32' E 027°10'0 0.0
2015-Feb-20 17:32N 60°32' E 027°10'0 0.0
2015-Feb-20 16:32N 60°32' E 027°10'0 0.0
2015-Feb-20 15:32N 60°32' E 027°10'0 0.0
2015-Feb-20 14:29N 60°32' E 027°10'0 0.0
2015-Feb-20 13:32N 60°32' E 027°10'0 0.0
2015-Feb-20 12:32N 60°32' E 027°10'0 0.0
2015-Feb-20 11:26N 60°32' E 027°10'0 0.0
2015-Feb-20 10:32N 60°32' E 027°10'0 0.0
2015-Feb-20 09:32N 60°32' E 027°10'0 0.0
2015-Feb-20 08:29N 60°32' E 027°10'0 0.0
2015-Feb-20 07:32N 60°32' E 027°10'0 0.0
2015-Feb-20 06:32N 60°32' E 027°10'0 0.0
2015-Feb-20 05:32N 60°32' E 027°10'0 0.0
2015-Feb-20 04:32N 60°32' E 027°10'  

Dump ship's entire track history